Time,TemperatureF,DewpointF,PressureIn,WindDirection,WindDirectionDegrees,WindSpeedMPH,WindSpeedGustMPH,Humidity,HourlyPrecipIn,Conditions,Clouds,dailyrainin,SoftwareType,DateUTC
2013-04-02 00:01:00,48.5,48.0,30.21,South,169,1.0,4.0,98,0.00,,---,0.00,VWS V14.01,2013-04-02 07:01:00,
2013-04-02 00:06:00,48.5,48.0,30.21,South,182,4.0,6.0,98,0.00,,---,0.00,VWS V14.01,2013-04-02 07:06:00,
2013-04-02 00:11:00,48.5,48.0,30.21,South,180,4.0,6.0,98,0.00,,---,0.00,VWS V14.01,2013-04-02 07:11:00,
2013-04-02 00:16:00,48.6,48.1,30.21,South,180,4.0,4.0,98,0.00,,---,0.00,VWS V14.01,2013-04-02 07:16:00,
2013-04-02 00:21:00,48.7,48.2,30.21,South,175,3.0,4.0,98,0.00,,---,0.00,VWS V14.01,2013-04-02 07:21:00,
2013-04-02 00:26:00,48.7,48.2,30.21,SSE,158,3.0,3.0,98,0.00,,---,0.00,VWS V14.01,2013-04-02 07:26:00,
2013-04-02 00:31:00,48.5,48.0,30.21,SSE,163,4.0,6.0,98,0.00,,---,0.00,VWS V14.01,2013-04-02 07:31:00,
2013-04-02 00:36:00,48.5,48.0,30.21,SSE,167,1.0,4.0,98,0.00,,---,0.00,VWS V14.01,2013-04-02 07:36:00,
2013-04-02 00:41:00,48.5,48.0,30.21,South,174,3.0,3.0,98,0.00,,---,0.00,VWS V14.01,2013-04-02 07:41:00,
2013-04-02 00:46:00,48.5,48.0,30.22,South,170,2.0,3.0,98,0.00,,---,0.00,VWS V14.01,2013-04-02 07:46:00,
2013-04-02 00:51:00,48.6,48.1,30.22,South,189,3.0,3.0,98,0.00,,---,0.00,VWS V14.01,2013-04-02 07:51:00,
2013-04-02 00:56:00,48.7,48.2,30.22,SSE,159,4.0,4.0,98,0.00,,---,0.00,VWS V14.01,2013-04-02 07:56:00,
2013-04-02 01:01:00,48.6,48.1,30.22,South,187,1.0,6.0,98,0.00,,---,0.00,VWS V14.01,2013-04-02 08:01:00,
2013-04-02 01:06:00,48.4,47.9,30.22,South,182,4.0,5.0,98,0.00,,---,0.00,VWS V14.01,2013-04-02 08:06:00,
2013-04-02 01:11:00,48.4,47.9,30.22,SSE,166,5.0,5.0,98,0.00,,---,0.00,VWS V14.01,2013-04-02 08:11:00,
2013-04-02 01:17:00,48.4,47.9,30.22,South,169,5.0,6.0,98,0.00,,---,0.00,VWS V14.01,2013-04-02 08:17:00,
2013-04-02 01:22:00,48.4,47.9,30.22,SSW,192,7.0,9.0,98,0.00,,---,0.00,VWS V14.01,2013-04-02 08:22:00,
2013-04-02 01:27:00,48.3,47.8,30.22,South,186,0.0,3.0,98,0.00,,---,0.00,VWS V14.01,2013-04-02 08:27:00,
2013-04-02 01:32:00,48.3,47.8,30.22,South,184,1.0,3.0,98,0.00,,---,0.00,VWS V14.01,2013-04-02 08:32:00,
2013-04-02 01:37:00,48.2,47.7,30.22,South,178,2.0,3.0,98,0.00,,---,0.00,VWS V14.01,2013-04-02 08:37:00,
2013-04-02 01:42:00,48.2,47.7,30.22,South,190,4.0,7.0,98,0.00,,---,0.00,VWS V14.01,2013-04-02 08:42:00,
2013-04-02 01:47:00,48.3,47.8,30.23,South,182,4.0,5.0,98,0.00,,---,0.00,VWS V14.01,2013-04-02 08:47:00,
2013-04-02 01:52:00,48.3,47.8,30.23,SSW,196,2.0,3.0,98,0.00,,---,0.00,VWS V14.01,2013-04-02 08:52:00,
2013-04-02 01:57:00,48.4,47.9,30.23,SSW,193,3.0,3.0,98,0.00,,---,0.00,VWS V14.01,2013-04-02 08:57:00,
2013-04-02 02:02:00,48.3,47.8,30.22,South,190,2.0,4.0,98,0.00,,---,0.00,VWS V14.01,2013-04-02 09:02:00,
2013-04-02 02:07:00,48.3,47.8,30.22,South,189,1.0,5.0,98,0.00,,---,0.00,VWS V14.01,2013-04-02 09:07:00,
2013-04-02 02:12:00,48.3,47.8,30.22,South,189,0.0,2.0,98,0.00,,---,0.00,VWS V14.01,2013-04-02 09:12:00,
2013-04-02 02:17:00,48.3,47.8,30.23,South,189,1.0,1.0,98,0.00,,---,0.00,VWS V14.01,2013-04-02 09:17:00,
2013-04-02 02:22:00,48.4,47.9,30.23,South,189,0.0,2.0,98,0.00,,---,0.00,VWS V14.01,2013-04-02 09:22:00,
2013-04-02 02:27:00,48.4,47.9,30.23,South,189,0.0,0.0,98,0.00,,---,0.00,VWS V14.01,2013-04-02 09:27:00,
2013-04-02 02:32:00,48.4,47.9,30.22,South,189,2.0,2.0,98,0.00,,---,0.00,VWS V14.01,2013-04-02 09:32:00,
2013-04-02 02:37:00,48.4,47.9,30.22,South,184,1.0,2.0,98,0.00,,---,0.00,VWS V14.01,2013-04-02 09:37:00,
2013-04-02 02:42:00,48.4,47.9,30.22,South,175,0.0,4.0,98,0.00,,---,0.00,VWS V14.01,2013-04-02 09:42:00,
2013-04-02 02:47:00,48.4,47.9,30.22,South,188,3.0,4.0,98,0.00,,---,0.00,VWS V14.01,2013-04-02 09:47:00,
2013-04-02 02:52:00,48.4,47.9,30.22,South,188,5.0,5.0,98,0.00,,---,0.00,VWS V14.01,2013-04-02 09:52:00,
2013-04-02 02:57:00,48.3,47.8,30.22,SSW,196,4.0,6.0,98,0.00,,---,0.00,VWS V14.01,2013-04-02 09:57:00,
2013-04-02 03:02:00,48.2,47.7,30.22,South,190,3.0,6.0,98,0.00,,---,0.00,VWS V14.01,2013-04-02 10:02:00,
2013-04-02 03:07:00,48.3,47.8,30.22,SSW,199,4.0,5.0,98,0.00,,---,0.00,VWS V14.01,2013-04-02 10:07:00,
2013-04-02 03:12:00,48.3,47.8,30.22,SSW,196,5.0,6.0,98,0.00,,---,0.00,VWS V14.01,2013-04-02 10:12:00,
2013-04-02 03:18:00,48.2,47.7,30.23,SSW,192,3.0,6.0,98,0.00,,---,0.00,VWS V14.01,2013-04-02 10:18:00,
2013-04-02 03:23:00,48.2,47.7,30.23,SSW,196,3.0,6.0,98,0.00,,---,0.00,VWS V14.01,2013-04-02 10:23:00,
2013-04-02 03:28:00,48.2,47.7,30.23,SSW,195,3.0,6.0,98,0.00,,---,0.00,VWS V14.01,2013-04-02 10:28:00,
2013-04-02 03:33:00,48.2,47.7,30.23,South,187,5.0,6.0,98,0.00,,---,0.00,VWS V14.01,2013-04-02 10:33:00,
2013-04-02 03:38:00,48.1,47.6,30.23,SSW,198,4.0,5.0,98,0.00,,---,0.00,VWS V14.01,2013-04-02 10:38:00,
2013-04-02 03:43:00,48.0,47.5,30.23,SSW,207,4.0,6.0,98,0.00,,---,0.00,VWS V14.01,2013-04-02 10:43:00,
2013-04-02 03:48:00,48.1,47.6,30.23,SSW,203,3.0,6.0,98,0.00,,---,0.00,VWS V14.01,2013-04-02 10:48:00,
2013-04-02 03:53:00,48.0,47.5,30.23,SSW,199,3.0,4.0,98,0.00,,---,0.00,VWS V14.01,2013-04-02 10:53:00,
2013-04-02 03:58:00,48.0,47.5,30.23,SSW,202,1.0,4.0,98,0.00,,---,0.00,VWS V14.01,2013-04-02 10:58:00,
2013-04-02 04:03:00,48.0,47.5,30.24,SSW,202,2.0,2.0,98,0.00,,---,0.00,VWS V14.01,2013-04-02 11:03:00,
2013-04-02 04:08:00,48.0,47.5,30.24,SW,223,4.0,4.0,98,0.00,,---,0.00,VWS V14.01,2013-04-02 11:08:00,
2013-04-02 04:13:00,48.1,47.6,30.24,SW,229,3.0,5.0,98,0.00,,---,0.00,VWS V14.01,2013-04-02 11:13:00,
2013-04-02 04:18:00,48.1,47.6,30.24,SSW,207,5.0,6.0,98,0.00,,---,0.00,VWS V14.01,2013-04-02 11:18:00,
2013-04-02 04:23:00,48.1,47.6,30.24,SSW,203,3.0,4.0,98,0.00,,---,0.00,VWS V14.01,2013-04-02 11:23:00,
2013-04-02 04:28:00,48.1,47.6,30.24,SSW,205,3.0,3.0,98,0.00,,---,0.00,VWS V14.01,2013-04-02 11:28:00,
2013-04-02 04:33:00,48.2,47.7,30.24,SSW,202,3.0,4.0,98,0.00,,---,0.00,VWS V14.01,2013-04-02 11:33:00,
2013-04-02 04:38:00,48.2,47.7,30.24,SSW,198,3.0,3.0,98,0.00,,---,0.00,VWS V14.01,2013-04-02 11:38:00,
2013-04-02 04:43:00,48.2,47.7,30.24,SSW,198,4.0,5.0,98,0.00,,---,0.00,VWS V14.01,2013-04-02 11:43:00,
2013-04-02 04:48:00,48.2,47.7,30.23,SSW,207,3.0,5.0,98,0.00,,---,0.00,VWS V14.01,2013-04-02 11:48:00,
2013-04-02 04:53:00,48.2,47.7,30.23,South,190,5.0,5.0,98,0.00,,---,0.00,VWS V14.01,2013-04-02 11:53:00,
2013-04-02 04:58:00,48.2,47.7,30.23,SW,217,5.0,8.0,98,0.00,,---,0.00,VWS V14.01,2013-04-02 11:58:00,
2013-04-02 05:03:00,48.2,47.7,30.23,SSW,203,6.0,7.0,98,0.00,,---,0.00,VWS V14.01,2013-04-02 12:03:00,
2013-04-02 05:08:00,48.2,47.7,30.23,SSW,198,3.0,6.0,98,0.00,,---,0.00,VWS V14.01,2013-04-02 12:08:00,
2013-04-02 05:13:00,48.2,47.7,30.23,SSW,192,1.0,4.0,98,0.00,,---,0.00,VWS V14.01,2013-04-02 12:13:00,
2013-04-02 05:18:00,48.1,47.6,30.23,South,187,1.0,4.0,98,0.00,,---,0.00,VWS V14.01,2013-04-02 12:18:00,
2013-04-02 05:23:00,48.0,47.5,30.23,SSE,150,2.0,4.0,98,0.00,,---,0.00,VWS V14.01,2013-04-02 12:23:00,
2013-04-02 05:28:00,47.9,47.4,30.23,SSE,163,1.0,4.0,98,0.00,,---,0.00,VWS V14.01,2013-04-02 12:28:00,
2013-04-02 05:33:00,47.8,47.3,30.22,ESE,116,2.0,5.0,98,0.00,,---,0.00,VWS V14.01,2013-04-02 12:33:00,
2013-04-02 05:38:00,47.9,47.4,30.22,ESE,121,4.0,5.0,98,0.00,,---,0.00,VWS V14.01,2013-04-02 12:38:00,
2013-04-02 05:43:00,47.8,47.3,30.22,ESE,117,2.0,4.0,98,0.00,,---,0.00,VWS V14.01,2013-04-02 12:43:00,
2013-04-02 05:48:00,47.9,47.4,30.22,ESE,105,0.0,5.0,98,0.00,,---,0.00,VWS V14.01,2013-04-02 12:48:00,
2013-04-02 05:53:00,47.8,47.3,30.22,ESE,113,1.0,3.0,98,0.00,,---,0.00,VWS V14.01,2013-04-02 12:53:00,
2013-04-02 05:58:00,47.8,47.3,30.22,ESE,107,1.0,3.0,98,0.00,,---,0.00,VWS V14.01,2013-04-02 12:58:00,
2013-04-02 06:03:00,47.8,47.3,30.22,ESE,107,0.0,2.0,98,0.00,,---,0.00,VWS V14.01,2013-04-02 13:03:00,
2013-04-02 06:08:00,47.9,47.4,30.22,ESE,107,0.0,1.0,98,0.00,,---,0.00,VWS V14.01,2013-04-02 13:08:00,
2013-04-02 06:13:00,47.9,47.4,30.22,ESE,107,0.0,2.0,98,0.00,,---,0.00,VWS V14.01,2013-04-02 13:13:00,
2013-04-02 06:18:00,47.9,47.4,30.21,ESE,107,0.0,1.0,98,0.00,,---,0.00,VWS V14.01,2013-04-02 13:18:00,
2013-04-02 06:23:00,47.9,47.4,30.21,ESE,107,0.0,0.0,98,0.00,,---,0.00,VWS V14.01,2013-04-02 13:23:00,
2013-04-02 06:28:00,48.0,47.5,30.21,ESE,107,0.0,0.0,98,0.00,,---,0.00,VWS V14.01,2013-04-02 13:28:00,
2013-04-02 06:33:00,48.0,47.5,30.22,ESE,107,0.0,0.0,98,0.00,,---,0.00,VWS V14.01,2013-04-02 13:33:00,
2013-04-02 06:38:00,48.0,47.5,30.22,ESE,107,0.0,1.0,98,0.00,,---,0.00,VWS V14.01,2013-04-02 13:38:00,
2013-04-02 06:43:00,48.0,47.5,30.22,ESE,107,0.0,0.0,98,0.00,,---,0.00,VWS V14.01,2013-04-02 13:43:00,
2013-04-02 06:48:00,48.0,47.5,30.22,ESE,107,0.0,0.0,98,0.00,,---,0.00,VWS V14.01,2013-04-02 13:48:00,
2013-04-02 06:53:00,48.0,47.5,30.22,ESE,107,0.0,1.0,98,0.00,,---,0.00,VWS V14.01,2013-04-02 13:53:00,
2013-04-02 06:58:00,48.0,47.5,30.22,ESE,107,0.0,0.0,98,0.00,,---,0.00,VWS V14.01,2013-04-02 13:58:00,
2013-04-02 07:03:00,48.1,47.6,30.21,ESE,107,0.0,0.0,98,0.00,,---,0.00,VWS V14.01,2013-04-02 14:03:00,
2013-04-02 07:08:00,48.1,47.6,30.21,ESE,107,0.0,0.0,98,0.00,,---,0.00,VWS V14.01,2013-04-02 14:08:00,
2013-04-02 07:13:00,48.1,47.6,30.21,ESE,107,0.0,1.0,98,0.00,,---,0.00,VWS V14.01,2013-04-02 14:13:00,
2013-04-02 07:18:00,48.1,47.6,30.22,ESE,107,0.0,0.0,98,0.00,,---,0.00,VWS V14.01,2013-04-02 14:18:00,
2013-04-02 07:23:00,48.1,47.6,30.22,ESE,107,0.0,0.0,98,0.00,,---,0.00,VWS V14.01,2013-04-02 14:23:00,
2013-04-02 07:28:00,48.1,47.6,30.22,ESE,107,0.0,0.0,98,0.00,,---,0.00,VWS V14.01,2013-04-02 14:28:00,
2013-04-02 07:33:00,48.2,47.7,30.22,ESE,107,0.0,0.0,98,0.00,,---,0.00,VWS V14.01,2013-04-02 14:33:00,
2013-04-02 07:38:00,48.2,47.7,30.22,ESE,107,0.0,0.0,98,0.00,,---,0.00,VWS V14.01,2013-04-02 14:38:00,
2013-04-02 07:44:00,48.2,47.7,30.22,ESE,107,0.0,0.0,98,0.00,,---,0.00,VWS V14.01,2013-04-02 14:44:00,
2013-04-02 07:49:00,48.3,47.8,30.22,ESE,107,0.0,0.0,98,0.00,,---,0.00,VWS V14.01,2013-04-02 14:49:00,
2013-04-02 07:54:00,48.5,48.0,30.22,ESE,107,0.0,1.0,98,0.00,,---,0.00,VWS V14.01,2013-04-02 14:54:00,
2013-04-02 07:59:00,48.5,48.0,30.22,ESE,107,0.0,0.0,98,0.00,,---,0.00,VWS V14.01,2013-04-02 14:59:00,
2013-04-02 08:04:00,48.7,48.2,30.22,ESE,119,1.0,2.0,98,0.00,,---,0.00,VWS V14.01,2013-04-02 15:04:00,
2013-04-02 08:09:00,48.7,48.2,30.22,South,180,0.0,2.0,98,0.00,,---,0.00,VWS V14.01,2013-04-02 15:09:00,
2013-04-02 08:14:00,48.7,48.2,30.22,SSW,213,2.0,3.0,98,0.00,,---,0.00,VWS V14.01,2013-04-02 15:14:00,
2013-04-02 08:19:00,48.6,48.1,30.22,SW,216,3.0,3.0,98,0.00,,---,0.00,VWS V14.01,2013-04-02 15:19:00,
2013-04-02 08:24:00,48.7,48.2,30.22,SW,216,0.0,2.0,98,0.00,,---,0.00,VWS V14.01,2013-04-02 15:24:00,
2013-04-02 08:29:00,48.7,48.2,30.22,SW,216,3.0,3.0,98,0.00,,---,0.00,VWS V14.01,2013-04-02 15:29:00,
2013-04-02 08:34:00,48.7,48.2,30.22,SW,218,3.0,4.0,98,0.00,,---,0.00,VWS V14.01,2013-04-02 15:34:00,
2013-04-02 08:39:00,48.7,48.2,30.22,SW,218,3.0,3.0,98,0.00,,---,0.00,VWS V14.01,2013-04-02 15:39:00,
2013-04-02 08:44:00,48.8,48.3,30.22,SSW,211,1.0,3.0,98,0.00,,---,0.00,VWS V14.01,2013-04-02 15:44:00,
2013-04-02 08:49:00,48.9,48.4,30.23,SSW,192,3.0,4.0,98,0.01,,---,0.01,VWS V14.01,2013-04-02 15:49:00,
2013-04-02 08:54:00,48.9,48.4,30.23,South,185,2.0,6.0,98,0.01,,---,0.01,VWS V14.01,2013-04-02 15:54:00,
2013-04-02 08:59:00,48.9,48.4,30.23,SSW,194,4.0,7.0,98,0.01,,---,0.01,VWS V14.01,2013-04-02 15:59:00,
2013-04-02 09:04:00,48.8,48.3,30.23,South,191,5.0,7.0,98,0.01,,---,0.01,VWS V14.01,2013-04-02 16:04:00,
2013-04-02 09:09:00,48.7,48.2,30.23,South,186,3.0,6.0,98,0.01,,---,0.01,VWS V14.01,2013-04-02 16:09:00,
2013-04-02 09:14:00,48.7,48.2,30.23,SSW,194,4.0,5.0,98,0.01,,---,0.01,VWS V14.01,2013-04-02 16:14:00,
2013-04-02 09:19:00,49.0,48.5,30.23,SSW,193,3.0,4.0,98,0.01,,---,0.01,VWS V14.01,2013-04-02 16:19:00,
2013-04-02 09:24:00,49.0,48.5,30.23,South,189,3.0,5.0,98,0.01,,---,0.01,VWS V14.01,2013-04-02 16:24:00,
2013-04-02 09:29:00,49.1,48.6,30.23,SSW,198,1.0,6.0,98,0.01,,---,0.01,VWS V14.01,2013-04-02 16:29:00,
2013-04-02 09:34:00,49.2,48.7,30.23,SSW,208,5.0,6.0,98,0.01,,---,0.01,VWS V14.01,2013-04-02 16:34:00,
2013-04-02 09:40:00,49.1,48.6,30.23,South,190,6.0,7.0,98,0.01,,---,0.01,VWS V14.01,2013-04-02 16:40:00,
2013-04-02 09:45:00,49.0,48.5,30.23,SSW,195,5.0,7.0,98,0.01,,---,0.01,VWS V14.01,2013-04-02 16:45:00,
2013-04-02 09:50:00,49.0,48.5,30.23,SSW,193,2.0,7.0,98,0.01,,---,0.01,VWS V14.01,2013-04-02 16:50:00,
2013-04-02 09:55:00,48.8,48.3,30.23,SSW,209,2.0,6.0,98,0.00,,---,0.01,VWS V14.01,2013-04-02 16:55:00,
2013-04-02 10:00:00,48.7,48.2,30.24,SW,215,4.0,6.0,98,0.00,,---,0.01,VWS V14.01,2013-04-02 17:00:00,
2013-04-02 10:05:00,48.7,48.2,30.24,SSW,210,6.0,7.0,98,0.00,,---,0.01,VWS V14.01,2013-04-02 17:05:00,
2013-04-02 10:10:00,49.0,48.5,30.24,SSW,198,3.0,7.0,98,0.00,,---,0.01,VWS V14.01,2013-04-02 17:10:00,
2013-04-02 10:15:00,48.9,48.4,30.24,SSW,205,4.0,7.0,98,0.00,,---,0.01,VWS V14.01,2013-04-02 17:15:00,
2013-04-02 10:20:00,48.8,48.3,30.24,SSW,192,0.0,7.0,98,0.00,,---,0.01,VWS V14.01,2013-04-02 17:20:00,
2013-04-02 10:25:00,49.1,48.6,30.24,SSW,195,3.0,6.0,98,0.00,,---,0.01,VWS V14.01,2013-04-02 17:25:00,
2013-04-02 10:30:00,49.1,48.6,30.24,SSW,207,5.0,7.0,98,0.00,,---,0.01,VWS V14.01,2013-04-02 17:30:00,
2013-04-02 10:35:00,48.9,48.4,30.24,SSW,211,6.0,8.0,98,0.00,,---,0.01,VWS V14.01,2013-04-02 17:35:00,
2013-04-02 10:40:00,48.8,48.3,30.24,SSW,207,7.0,10.0,98,0.00,,---,0.01,VWS V14.01,2013-04-02 17:40:00,
2013-04-02 10:45:00,48.8,48.3,30.24,SSW,208,7.0,8.0,98,0.00,,---,0.01,VWS V14.01,2013-04-02 17:45:00,
2013-04-02 10:50:00,48.7,48.2,30.24,SSW,200,5.0,5.0,98,0.00,,---,0.01,VWS V14.01,2013-04-02 17:50:00,
2013-04-02 10:55:00,48.8,48.3,30.24,SSW,198,6.0,7.0,98,0.00,,---,0.01,VWS V14.01,2013-04-02 17:55:00,
2013-04-02 11:00:00,48.7,48.2,30.25,SSW,200,6.0,6.0,98,0.00,,---,0.01,VWS V14.01,2013-04-02 18:00:00,
2013-04-02 11:05:00,48.6,48.1,30.25,SSE,166,5.0,7.0,98,0.00,,---,0.01,VWS V14.01,2013-04-02 18:05:00,
2013-04-02 11:11:00,48.8,48.3,30.25,SSW,209,5.0,7.0,98,0.00,,---,0.01,VWS V14.01,2013-04-02 18:11:00,
2013-04-02 11:16:00,48.9,48.4,30.25,SSW,212,6.0,6.0,98,0.00,,---,0.01,VWS V14.01,2013-04-02 18:16:00,
2013-04-02 11:21:00,48.8,48.3,30.25,SW,219,4.0,5.0,98,0.00,,---,0.01,VWS V14.01,2013-04-02 18:21:00,
2013-04-02 11:26:00,48.9,48.4,30.25,SSW,211,1.0,5.0,98,0.00,,---,0.01,VWS V14.01,2013-04-02 18:26:00,
2013-04-02 11:31:00,49.4,48.9,30.25,SSW,207,5.0,6.0,98,0.00,,---,0.01,VWS V14.01,2013-04-02 18:31:00,
2013-04-02 11:36:00,49.4,48.9,30.25,SSW,194,5.0,5.0,98,0.00,,---,0.01,VWS V14.01,2013-04-02 18:36:00,
2013-04-02 11:41:00,49.5,49.0,30.25,South,184,4.0,4.0,98,0.00,,---,0.01,VWS V14.01,2013-04-02 18:41:00,
2013-04-02 11:46:00,49.9,49.4,30.25,SSW,207,6.0,6.0,98,0.00,,---,0.01,VWS V14.01,2013-04-02 18:46:00,
2013-04-02 11:51:00,49.5,49.0,30.25,SW,222,6.0,6.0,98,0.00,,---,0.01,VWS V14.01,2013-04-02 18:51:00,
2013-04-02 11:56:00,49.6,49.1,30.25,South,178,3.0,6.0,98,0.00,,---,0.01,VWS V14.01,2013-04-02 18:56:00,
2013-04-02 12:02:00,49.5,49.0,30.25,SSW,211,3.0,7.0,98,0.00,,---,0.01,VWS V14.01,2013-04-02 19:02:00,
2013-04-02 12:07:00,49.7,49.2,30.25,SW,214,6.0,7.0,98,0.00,,---,0.01,VWS V14.01,2013-04-02 19:07:00,
2013-04-02 12:12:00,49.6,49.1,30.25,SW,216,5.0,5.0,98,0.00,,---,0.01,VWS V14.01,2013-04-02 19:12:00,
2013-04-02 12:17:00,50.1,49.6,30.25,SW,215,2.0,4.0,98,0.00,,---,0.01,VWS V14.01,2013-04-02 19:17:00,
2013-04-02 12:22:00,50.6,50.1,30.25,SSW,199,6.0,6.0,98,0.00,,---,0.01,VWS V14.01,2013-04-02 19:22:00,
2013-04-02 12:27:00,50.4,49.9,30.25,WSW,237,5.0,7.0,98,0.00,,---,0.01,VWS V14.01,2013-04-02 19:27:00,
2013-04-02 12:32:00,50.4,49.6,30.25,SSW,213,4.0,5.0,97,0.00,,---,0.01,VWS V14.01,2013-04-02 19:32:00,
2013-04-02 12:37:00,50.4,49.6,30.25,SW,215,4.0,5.0,97,0.00,,---,0.01,VWS V14.01,2013-04-02 19:37:00,
2013-04-02 12:42:00,50.8,50.0,30.25,SSW,205,2.0,5.0,97,0.00,,---,0.01,VWS V14.01,2013-04-02 19:42:00,
2013-04-02 12:48:00,51.1,50.3,30.25,SW,229,5.0,5.0,97,0.00,,---,0.01,VWS V14.01,2013-04-02 19:48:00,
2013-04-02 12:53:00,51.0,50.2,30.25,SW,225,4.0,6.0,97,0.00,,---,0.01,VWS V14.01,2013-04-02 19:53:00,
2013-04-02 12:58:00,50.8,50.0,30.25,SW,227,3.0,6.0,97,0.00,,---,0.01,VWS V14.01,2013-04-02 19:58:00,
2013-04-02 13:03:00,50.9,49.8,30.25,SSW,205,5.0,7.0,96,0.00,,---,0.01,VWS V14.01,2013-04-02 20:03:00,
2013-04-02 13:08:00,51.1,50.3,30.25,SW,228,5.0,6.0,97,0.00,,---,0.01,VWS V14.01,2013-04-02 20:08:00,
2013-04-02 13:13:00,51.1,50.0,30.25,SW,232,3.0,5.0,96,0.00,,---,0.01,VWS V14.01,2013-04-02 20:13:00,
2013-04-02 13:18:00,51.3,50.5,30.25,SW,228,3.0,5.0,97,0.00,,---,0.01,VWS V14.01,2013-04-02 20:18:00,
2013-04-02 13:23:00,51.4,50.3,30.25,SW,225,2.0,5.0,96,0.00,,---,0.01,VWS V14.01,2013-04-02 20:23:00,
2013-04-02 13:28:00,51.3,50.2,30.25,SW,222,6.0,6.0,96,0.00,,---,0.01,VWS V14.01,2013-04-02 20:28:00,
2013-04-02 13:33:00,51.1,50.0,30.25,SW,227,6.0,8.0,96,0.00,,---,0.01,VWS V14.01,2013-04-02 20:33:00,
2013-04-02 13:38:00,51.1,50.0,30.25,SSW,203,6.0,8.0,96,0.00,,---,0.01,VWS V14.01,2013-04-02 20:38:00,
2013-04-02 13:43:00,51.2,50.1,30.25,SSW,211,5.0,7.0,96,0.00,,---,0.01,VWS V14.01,2013-04-02 20:43:00,
2013-04-02 13:48:00,51.7,50.6,30.25,SW,229,4.0,7.0,96,0.00,,---,0.01,VWS V14.01,2013-04-02 20:48:00,
2013-04-02 13:53:00,52.0,50.9,30.25,SW,225,4.0,5.0,96,0.00,,---,0.01,VWS V14.01,2013-04-02 20:53:00,
2013-04-02 13:58:00,51.9,50.8,30.25,West,266,4.0,5.0,96,0.00,,---,0.01,VWS V14.01,2013-04-02 20:58:00,
2013-04-02 14:03:00,51.7,50.6,30.25,WSW,243,4.0,5.0,96,0.00,,---,0.01,VWS V14.01,2013-04-02 21:03:00,
2013-04-02 14:08:00,51.1,49.7,30.25,WSW,253,4.0,5.0,95,0.00,,---,0.01,VWS V14.01,2013-04-02 21:08:00,
2013-04-02 14:13:00,51.0,49.6,30.25,WSW,252,4.0,4.0,95,0.00,,---,0.01,VWS V14.01,2013-04-02 21:13:00,
2013-04-02 14:19:00,50.8,49.4,30.25,WSW,252,4.0,4.0,95,0.00,,---,0.01,VWS V14.01,2013-04-02 21:19:00,
2013-04-02 14:24:00,51.0,49.9,30.25,WSW,257,3.0,4.0,96,0.00,,---,0.01,VWS V14.01,2013-04-02 21:24:00,
2013-04-02 14:29:00,51.7,50.6,30.25,WSW,255,3.0,4.0,96,0.00,,---,0.01,VWS V14.01,2013-04-02 21:29:00,
2013-04-02 14:34:00,52.2,51.1,30.24,West,263,2.0,4.0,96,0.00,,---,0.01,VWS V14.01,2013-04-02 21:34:00,
2013-04-02 14:39:00,52.5,51.4,30.24,WNW,303,2.0,4.0,96,0.00,,---,0.01,VWS V14.01,2013-04-02 21:39:00,
2013-04-02 14:44:00,52.3,50.6,30.24,WSW,258,4.0,5.0,94,0.00,,---,0.01,VWS V14.01,2013-04-02 21:44:00,
2013-04-02 14:49:00,52.4,51.0,30.24,WNW,296,5.0,5.0,95,0.00,,---,0.01,VWS V14.01,2013-04-02 21:49:00,
2013-04-02 14:54:00,52.8,51.4,30.24,WSW,246,2.0,4.0,95,0.00,,---,0.01,VWS V14.01,2013-04-02 21:54:00,
2013-04-02 14:59:00,53.0,51.3,30.24,WSW,248,4.0,4.0,94,0.00,,---,0.01,VWS V14.01,2013-04-02 21:59:00,
2013-04-02 15:04:00,53.0,51.3,30.23,West,277,4.0,5.0,94,0.00,,---,0.01,VWS V14.01,2013-04-02 22:04:00,
2013-04-02 15:09:00,52.4,50.7,30.23,West,267,4.0,5.0,94,0.00,,---,0.01,VWS V14.01,2013-04-02 22:09:00,
2013-04-02 15:14:00,52.3,50.6,30.23,West,261,3.0,5.0,94,0.00,,---,0.01,VWS V14.01,2013-04-02 22:14:00,
2013-04-02 15:19:00,52.7,51.3,30.23,West,262,4.0,5.0,95,0.00,,---,0.01,VWS V14.01,2013-04-02 22:19:00,
2013-04-02 15:24:00,52.4,50.4,30.23,West,263,2.0,5.0,93,0.00,,---,0.01,VWS V14.01,2013-04-02 22:24:00,
2013-04-02 15:29:00,52.5,50.8,30.22,West,278,2.0,5.0,94,0.00,,---,0.01,VWS V14.01,2013-04-02 22:29:00,
2013-04-02 15:34:00,52.7,51.0,30.22,West,261,1.0,4.0,94,0.00,,---,0.01,VWS V14.01,2013-04-02 22:34:00,
2013-04-02 15:39:00,52.7,50.7,30.22,WSW,256,2.0,4.0,93,0.00,,---,0.01,VWS V14.01,2013-04-02 22:39:00,
2013-04-02 15:44:00,53.0,51.0,30.22,NW,306,5.0,5.0,93,0.00,,---,0.01,VWS V14.01,2013-04-02 22:44:00,
2013-04-02 15:49:00,53.0,51.0,30.22,NW,311,3.0,4.0,93,0.00,,---,0.01,VWS V14.01,2013-04-02 22:49:00,
2013-04-02 15:54:00,53.0,51.0,30.22,WNW,293,4.0,4.0,93,0.00,,---,0.01,VWS V14.01,2013-04-02 22:54:00,
2013-04-02 15:59:00,53.3,51.3,30.22,WNW,286,3.0,5.0,93,0.00,,---,0.01,VWS V14.01,2013-04-02 22:59:00,
2013-04-02 16:04:00,53.6,51.6,30.22,NW,310,4.0,5.0,93,0.00,,---,0.01,VWS V14.01,2013-04-02 23:04:00,
2013-04-02 16:09:00,53.8,51.5,30.22,WNW,291,5.0,5.0,92,0.00,,---,0.01,VWS V14.01,2013-04-02 23:09:00,
2013-04-02 16:14:00,53.9,51.6,30.21,West,269,4.0,6.0,92,0.00,,---,0.01,VWS V14.01,2013-04-02 23:14:00,
2013-04-02 16:19:00,53.9,51.6,30.21,WNW,296,6.0,7.0,92,0.00,,---,0.01,VWS V14.01,2013-04-02 23:19:00,
2013-04-02 16:24:00,53.3,50.7,30.21,WNW,301,8.0,8.0,91,0.00,,---,0.01,VWS V14.01,2013-04-02 23:24:00,
2013-04-02 16:29:00,52.3,49.8,30.21,WNW,296,7.0,8.0,91,0.00,,---,0.01,VWS V14.01,2013-04-02 23:29:00,
2013-04-02 16:35:00,51.7,49.5,30.21,NW,309,8.0,8.0,92,0.00,,---,0.01,VWS V14.01,2013-04-02 23:35:00,
2013-04-02 16:40:00,51.6,49.4,30.21,WNW,303,5.0,7.0,92,0.00,,---,0.01,VWS V14.01,2013-04-02 23:40:00,
2013-04-02 16:45:00,51.6,49.4,30.20,NW,310,8.0,8.0,92,0.00,,---,0.01,VWS V14.01,2013-04-02 23:45:00,
2013-04-02 16:50:00,51.5,49.3,30.20,NW,306,9.0,9.0,92,0.00,,---,0.01,VWS V14.01,2013-04-02 23:50:00,
2013-04-02 16:55:00,51.4,49.2,30.20,NW,312,5.0,8.0,92,0.00,,---,0.01,VWS V14.01,2013-04-02 23:55:00,
2013-04-02 17:00:00,51.6,49.4,30.20,WNW,301,6.0,7.0,92,0.00,,---,0.01,VWS V14.01,2013-04-03 00:00:00,
2013-04-02 17:05:00,51.5,49.3,30.20,NW,306,8.0,8.0,92,0.00,,---,0.01,VWS V14.01,2013-04-03 00:05:00,
2013-04-02 17:10:00,51.5,49.3,30.20,WNW,297,8.0,9.0,92,0.00,,---,0.01,VWS V14.01,2013-04-03 00:10:00,
2013-04-02 17:15:00,51.5,49.3,30.20,NW,305,8.0,9.0,92,0.00,,---,0.01,VWS V14.01,2013-04-03 00:15:00,
2013-04-02 17:20:00,51.3,48.8,30.20,WNW,302,7.0,8.0,91,0.00,,---,0.01,VWS V14.01,2013-04-03 00:20:00,
2013-04-02 17:25:00,51.3,48.8,30.20,WNW,287,6.0,10.0,91,0.00,,---,0.01,VWS V14.01,2013-04-03 00:25:00,
2013-04-02 17:30:00,51.5,49.0,30.20,NW,306,8.0,8.0,91,0.00,,---,0.01,VWS V14.01,2013-04-03 00:30:00,
2013-04-02 17:35:00,51.3,48.8,30.20,WNW,297,7.0,7.0,91,0.00,,---,0.01,VWS V14.01,2013-04-03 00:35:00,
2013-04-02 17:40:00,51.2,48.7,30.20,WNW,298,9.0,9.0,91,0.00,,---,0.01,VWS V14.01,2013-04-03 00:40:00,
2013-04-02 17:46:00,51.2,48.7,30.20,WNW,300,10.0,11.0,91,0.00,,---,0.01,VWS V14.01,2013-04-03 00:46:00,
2013-04-02 17:51:00,51.1,48.6,30.20,NW,313,10.0,10.0,91,0.00,,---,0.01,VWS V14.01,2013-04-03 00:51:00,
2013-04-02 17:56:00,50.9,48.4,30.20,WNW,298,10.0,12.0,91,0.00,,---,0.01,VWS V14.01,2013-04-03 00:56:00,
2013-04-02 18:02:00,50.8,48.3,30.20,WNW,303,11.0,12.0,91,0.00,,---,0.01,VWS V14.01,2013-04-03 01:02:00,
2013-04-02 18:07:00,50.8,48.3,30.20,NW,305,10.0,12.0,91,0.00,,---,0.01,VWS V14.01,2013-04-03 01:07:00,
2013-04-02 18:12:00,50.8,48.3,30.20,NW,314,11.0,13.0,91,0.00,,---,0.01,VWS V14.01,2013-04-03 01:12:00,
2013-04-02 18:17:00,50.9,48.4,30.20,WNW,301,9.0,11.0,91,0.00,,---,0.01,VWS V14.01,2013-04-03 01:17:00,
2013-04-02 18:22:00,50.7,48.2,30.20,WNW,289,12.0,12.0,91,0.00,,---,0.01,VWS V14.01,2013-04-03 01:22:00,
2013-04-02 18:27:00,50.6,48.1,30.20,NW,318,11.0,13.0,91,0.00,,---,0.01,VWS V14.01,2013-04-03 01:27:00,
2013-04-02 18:32:00,50.6,48.1,30.20,NW,308,12.0,12.0,91,0.00,,---,0.01,VWS V14.01,2013-04-03 01:32:00,
2013-04-02 18:37:00,50.5,48.0,30.20,NW,311,9.0,12.0,91,0.00,,---,0.01,VWS V14.01,2013-04-03 01:37:00,
2013-04-02 18:42:00,50.6,48.4,30.20,NW,313,10.0,12.0,92,0.00,,---,0.01,VWS V14.01,2013-04-03 01:42:00,
2013-04-02 18:47:00,50.6,48.4,30.20,NW,306,9.0,11.0,92,0.00,,---,0.01,VWS V14.01,2013-04-03 01:47:00,
2013-04-02 18:52:00,50.5,48.3,30.20,NW,307,10.0,11.0,92,0.00,,---,0.01,VWS V14.01,2013-04-03 01:52:00,
2013-04-02 18:57:00,50.1,47.9,30.20,NW,313,13.0,13.0,92,0.00,,---,0.01,VWS V14.01,2013-04-03 01:57:00,
2013-04-02 19:02:00,49.8,47.6,30.20,NW,306,11.0,12.0,92,0.00,,---,0.01,VWS V14.01,2013-04-03 02:02:00,
2013-04-02 19:07:00,49.7,47.5,30.20,WNW,302,4.0,13.0,92,0.00,,---,0.01,VWS V14.01,2013-04-03 02:07:00,
2013-04-02 19:12:00,49.7,47.5,30.20,WNW,295,8.0,12.0,92,0.00,,---,0.01,VWS V14.01,2013-04-03 02:12:00,
2013-04-02 19:17:00,49.7,47.5,30.20,NW,325,9.0,13.0,92,0.00,,---,0.01,VWS V14.01,2013-04-03 02:17:00,
2013-04-02 19:23:00,49.4,47.2,30.20,WNW,290,9.0,11.0,92,0.00,,---,0.01,VWS V14.01,2013-04-03 02:23:00,
2013-04-02 19:28:00,49.3,47.4,30.20,NW,312,11.0,14.0,93,0.00,,---,0.01,VWS V14.01,2013-04-03 02:28:00,
2013-04-02 19:33:00,49.0,46.8,30.20,NW,318,7.0,13.0,92,0.00,,---,0.01,VWS V14.01,2013-04-03 02:33:00,
2013-04-02 19:38:00,49.2,47.3,30.20,NW,313,3.0,10.0,93,0.00,,---,0.01,VWS V14.01,2013-04-03 02:38:00,
2013-04-02 19:43:00,49.2,47.3,30.20,NNW,328,3.0,9.0,93,0.00,,---,0.01,VWS V14.01,2013-04-03 02:43:00,
2013-04-02 19:48:00,49.2,47.3,30.19,NW,304,4.0,8.0,93,0.00,,---,0.01,VWS V14.01,2013-04-03 02:48:00,
2013-04-02 19:53:00,49.2,47.0,30.19,NNW,339,7.0,10.0,92,0.00,,---,0.01,VWS V14.01,2013-04-03 02:53:00,
2013-04-02 19:58:00,49.1,46.9,30.19,NNW,331,7.0,7.0,92,0.00,,---,0.01,VWS V14.01,2013-04-03 02:58:00,
2013-04-02 20:03:00,49.0,46.8,30.20,NW,326,5.0,9.0,92,0.00,,---,0.01,VWS V14.01,2013-04-03 03:03:00,
2013-04-02 20:08:00,49.0,46.8,30.20,NNW,339,6.0,10.0,92,0.00,,---,0.01,VWS V14.01,2013-04-03 03:08:00,
2013-04-02 20:14:00,48.8,46.6,30.20,NW,311,9.0,12.0,92,0.00,,---,0.01,VWS V14.01,2013-04-03 03:14:00,
2013-04-02 20:19:00,48.7,46.5,30.20,WNW,292,5.0,11.0,92,0.00,,---,0.01,VWS V14.01,2013-04-03 03:19:00,
2013-04-02 20:24:00,48.8,46.6,30.20,NW,323,2.0,10.0,92,0.00,,---,0.01,VWS V14.01,2013-04-03 03:24:00,
2013-04-02 20:29:00,48.8,46.6,30.20,NNW,339,2.0,10.0,92,0.00,,---,0.01,VWS V14.01,2013-04-03 03:29:00,
2013-04-02 20:34:00,48.8,46.6,30.20,North,360,1.0,6.0,92,0.00,,---,0.01,VWS V14.01,2013-04-03 03:34:00,
2013-04-02 20:39:00,48.9,46.7,30.20,NNW,331,1.0,6.0,92,0.00,,---,0.01,VWS V14.01,2013-04-03 03:39:00,
2013-04-02 20:44:00,48.9,46.7,30.20,NW,304,2.0,6.0,92,0.00,,---,0.01,VWS V14.01,2013-04-03 03:44:00,
2013-04-02 20:49:00,48.8,46.6,30.20,NNE,17,2.0,5.0,92,0.00,,---,0.01,VWS V14.01,2013-04-03 03:49:00,
2013-04-02 20:54:00,48.9,46.7,30.20,NNW,333,0.0,5.0,92,0.00,,---,0.01,VWS V14.01,2013-04-03 03:54:00,
2013-04-02 20:59:00,48.9,46.7,30.20,NW,317,2.0,6.0,92,0.00,,---,0.01,VWS V14.01,2013-04-03 03:59:00,
2013-04-02 21:00:00,48.9,46.7,30.19,NNE,32,1.0,6.0,92,0.00,,---,0.01,VWS V14.01,2013-04-03 04:00:00,
2013-04-02 21:05:00,49.0,46.8,30.19,North,351,5.0,5.0,92,0.00,,---,0.01,VWS V14.01,2013-04-03 04:05:00,
2013-04-02 21:10:00,48.8,46.6,30.19,NW,319,0.0,2.0,92,0.00,,---,0.01,VWS V14.01,2013-04-03 04:10:00,
2013-04-02 21:15:00,48.8,46.6,30.19,NNW,336,2.0,2.0,92,0.00,,---,0.01,VWS V14.01,2013-04-03 04:15:00,
2013-04-02 21:20:00,48.9,46.7,30.19,NNE,18,2.0,2.0,92,0.00,,---,0.01,VWS V14.01,2013-04-03 04:20:00,
2013-04-02 21:25:00,48.8,46.6,30.19,NNW,331,0.0,4.0,92,0.00,,---,0.01,VWS V14.01,2013-04-03 04:25:00,
2013-04-02 21:30:00,48.8,46.6,30.20,NW,307,2.0,2.0,92,0.00,,---,0.01,VWS V14.01,2013-04-03 04:30:00,
2013-04-02 21:35:00,48.7,46.5,30.20,NNW,328,0.0,1.0,92,0.00,,---,0.01,VWS V14.01,2013-04-03 04:35:00,
2013-04-02 21:40:00,48.7,46.5,30.20,North,360,2.0,2.0,92,0.00,,---,0.01,VWS V14.01,2013-04-03 04:40:00,
2013-04-02 21:45:00,48.7,46.5,30.20,NNE,22,1.0,2.0,92,0.00,,---,0.01,VWS V14.01,2013-04-03 04:45:00,
2013-04-02 21:50:00,48.7,46.8,30.20,NNE,28,1.0,2.0,93,0.00,,---,0.01,VWS V14.01,2013-04-03 04:50:00,
2013-04-02 21:55:00,48.7,46.8,30.20,NNE,24,0.0,0.0,93,0.00,,---,0.01,VWS V14.01,2013-04-03 04:55:00,
2013-04-02 22:00:00,48.7,46.8,30.20,NNW,336,1.0,1.0,93,0.00,,---,0.01,VWS V14.01,2013-04-03 05:00:00,
2013-04-02 22:05:00,48.8,46.9,30.20,NNW,329,2.0,2.0,93,0.00,,---,0.01,VWS V14.01,2013-04-03 05:05:00,
2013-04-02 22:10:00,48.7,46.8,30.20,NW,319,0.0,1.0,93,0.00,,---,0.01,VWS V14.01,2013-04-03 05:10:00,
2013-04-02 22:15:00,48.6,46.7,30.20,WNW,284,6.0,6.0,93,0.00,,---,0.01,VWS V14.01,2013-04-03 05:15:00,
2013-04-02 22:20:00,48.3,46.1,30.20,NW,317,0.0,3.0,92,0.00,,---,0.01,VWS V14.01,2013-04-03 05:20:00,
2013-04-02 22:25:00,48.4,46.5,30.20,NW,312,3.0,6.0,93,0.00,,---,0.01,VWS V14.01,2013-04-03 05:25:00,
2013-04-02 22:30:00,48.3,46.4,30.20,NNW,334,2.0,4.0,93,0.00,,---,0.01,VWS V14.01,2013-04-03 05:30:00,
2013-04-02 22:36:00,48.3,46.4,30.20,NNE,27,4.0,5.0,93,0.00,,---,0.01,VWS V14.01,2013-04-03 05:36:00,
2013-04-02 22:40:00,48.3,46.4,30.20,NNE,23,4.0,4.0,93,0.00,,---,0.01,VWS V14.01,2013-04-03 05:40:00,
2013-04-02 22:46:00,48.3,46.4,30.20,NNE,25,1.0,2.0,93,0.00,,---,0.01,VWS V14.01,2013-04-03 05:46:00,
2013-04-02 22:51:00,48.4,46.5,30.20,NE,45,0.0,0.0,93,0.00,,---,0.01,VWS V14.01,2013-04-03 05:51:00,
2013-04-02 22:56:00,48.3,46.4,30.20,NE,45,2.0,2.0,93,0.00,,---,0.01,VWS V14.01,2013-04-03 05:56:00,
2013-04-02 23:01:00,48.4,46.5,30.19,North,9,2.0,2.0,93,0.00,,---,0.01,VWS V14.01,2013-04-03 06:01:00,
2013-04-02 23:06:00,48.4,46.5,30.19,NNE,21,1.0,1.0,93,0.00,,---,0.01,VWS V14.01,2013-04-03 06:06:00,
2013-04-02 23:11:00,48.3,46.4,30.19,NNE,30,0.0,1.0,93,0.00,,---,0.01,VWS V14.01,2013-04-03 06:11:00,
2013-04-02 23:17:00,48.3,46.4,30.19,NE,40,1.0,3.0,93,0.00,,---,0.01,VWS V14.01,2013-04-03 06:17:00,
2013-04-02 23:22:00,48.3,46.4,30.19,NE,42,3.0,4.0,93,0.00,,---,0.01,VWS V14.01,2013-04-03 06:22:00,
2013-04-02 23:27:00,48.2,46.3,30.19,NNW,344,0.0,3.0,93,0.00,,---,0.01,VWS V14.01,2013-04-03 06:27:00,
2013-04-02 23:32:00,48.1,46.2,30.20,North,11,0.0,3.0,93,0.00,,---,0.01,VWS V14.01,2013-04-03 06:32:00,
2013-04-02 23:37:00,48.1,46.2,30.20,North,360,2.0,5.0,93,0.00,,---,0.01,VWS V14.01,2013-04-03 06:37:00,
2013-04-02 23:42:00,48.0,46.1,30.20,NE,46,3.0,5.0,93,0.00,,---,0.01,VWS V14.01,2013-04-03 06:42:00,
2013-04-02 23:47:00,47.9,46.0,30.19,NE,49,3.0,4.0,93,0.00,,---,0.01,VWS V14.01,2013-04-03 06:47:00,
2013-04-02 23:52:00,47.9,46.0,30.19,ENE,61,2.0,3.0,93,0.00,,---,0.01,VWS V14.01,2013-04-03 06:52:00,
2013-04-02 23:57:00,47.9,46.0,30.19,ENE,65,3.0,3.0,93,0.00,,---,0.01,VWS V14.01,2013-04-03 06:57:00,